Terminal Aerodrome Forecast
Issued by NWS

Home | Current Version | Previous Version | Text Only | Print | Product List | Glossary On
Versions: 1 2 3 4 5 6 7 8 9 10 11 12 13 14
000
FTAK31 PANC 310528
TAFADU
TAF
PADU 310528Z 3106/0106 11022G35KT 5SM -RA BR OVC018
      TEMPO 3106/3110 1 1/2SM -RA BR
     FM311200 14012G22KT P6SM -RA OVC015
     FM010400 12008KT P6SM -RA OVC020=

USA.gov is the U.S. government's official web portal to all federal, state and local government web resources and services.